createdAt,value
2024-05-09T00:00:29.914Z,91.1260
2024-05-09T00:01:23.495Z,91.1814
2024-05-09T00:02:25.312Z,90.9967
2024-05-09T00:03:27.051Z,90.6625
2024-05-09T00:04:28.728Z,90.7348
2024-05-09T00:05:30.608Z,90.9370
2024-05-09T00:06:32.320Z,91.5586
2024-05-09T00:07:34.060Z,91.5038
2024-05-09T00:08:35.879Z,91.5889
2024-05-09T00:09:37.882Z,91.5109
2024-05-09T00:10:40.657Z,91.5112
2024-05-09T00:11:40.678Z,91.6272
2024-05-09T00:12:42.439Z,91.5235
2024-05-09T00:13:44.338Z,91.5699
2024-05-09T00:14:45.960Z,91.5050
2024-05-09T00:15:47.589Z,91.7001
2024-05-09T00:16:49.312Z,91.3486
2024-05-09T00:17:51.634Z,91.3583
2024-05-09T00:18:54.297Z,91.3603
2024-05-09T00:19:56.166Z,91.3852
2024-05-09T00:20:57.942Z,91.0201
2024-05-09T00:21:59.640Z,91.0439
2024-05-09T00:23:01.458Z,91.2644
2024-05-09T00:24:03.233Z,91.2419
2024-05-09T00:25:04.871Z,91.2902
2024-05-09T00:26:06.634Z,91.2396
2024-05-09T00:27:08.945Z,91.4658
2024-05-09T00:28:09.131Z,91.4620
2024-05-09T00:29:10.778Z,91.6537
2024-05-09T00:30:17.824Z,91.7028
2024-05-09T00:31:14.527Z,91.8546
2024-05-09T00:32:16.362Z,91.7265
2024-05-09T00:33:18.377Z,92.0491
2024-05-09T00:34:20.327Z,92.1246
2024-05-09T00:35:22.266Z,92.3132
2024-05-09T00:36:24.240Z,92.0482
2024-05-09T00:37:26.051Z,92.1246
2024-05-09T00:38:27.868Z,92.2314
2024-05-09T00:39:29.614Z,92.4595
2024-05-09T00:40:38.586Z,92.5388
2024-05-09T00:41:33.413Z,92.6580
2024-05-09T00:42:35.178Z,92.5487
2024-05-09T00:43:36.948Z,92.6405
2024-05-09T00:44:38.662Z,92.6763
2024-05-09T00:45:40.423Z,92.6544
2024-05-09T00:46:42.141Z,92.3355
2024-05-09T00:47:44.441Z,92.3056
2024-05-09T00:48:46.464Z,92.0228
2024-05-09T00:49:48.497Z,91.9952
2024-05-09T00:50:50.305Z,91.9910
2024-05-09T00:51:52.211Z,91.9704
2024-05-09T00:52:53.846Z,91.7963
2024-05-09T00:53:55.938Z,91.8082
2024-05-09T00:54:57.638Z,91.9975
2024-05-09T00:55:59.404Z,91.7001
2024-05-09T00:57:01.057Z,91.4871
2024-05-09T00:58:02.881Z,91.5622
2024-05-09T00:59:04.672Z,91.6794
2024-05-09T01:00:12.079Z,91.2635
2024-05-09T01:01:08.561Z,91.0156
2024-05-09T01:02:10.440Z,91.1577
2024-05-09T01:03:13.904Z,91.3250
2024-05-09T01:04:13.581Z,91.1743
2024-05-09T01:05:15.394Z,90.7921
2024-05-09T01:06:17.269Z,91.0421
2024-05-09T01:07:19.051Z,91.1659
2024-05-09T01:08:21.045Z,91.0079
2024-05-09T01:09:22.911Z,90.8388
2024-05-09T01:10:32.210Z,90.7833
2024-05-09T01:11:26.917Z,90.6192
2024-05-09T01:12:28.846Z,90.7356
2024-05-09T01:13:30.538Z,90.7441
2024-05-09T01:14:32.444Z,90.5405
2024-05-09T01:15:34.215Z,90.3585
2024-05-09T01:16:36.162Z,90.5108
2024-05-09T01:17:38.082Z,90.7262
2024-05-09T01:18:40.032Z,90.5505
2024-05-09T01:19:41.941Z,90.4315
2024-05-09T01:20:45.313Z,90.6869
2024-05-09T01:21:44.676Z,90.5756
2024-05-09T01:22:46.423Z,90.6673
2024-05-09T01:23:48.115Z,90.8716
2024-05-09T01:24:49.977Z,90.7330
2024-05-09T01:25:51.679Z,90.5021
2024-05-09T01:26:53.472Z,90.2785
2024-05-09T01:27:55.223Z,90.4098
2024-05-09T01:28:56.972Z,90.2595
2024-05-09T01:29:58.748Z,90.3469
2024-05-09T01:31:00.464Z,90.3200
2024-05-09T01:32:02.320Z,90.4902
2024-05-09T01:33:04.957Z,90.5130
2024-05-09T01:34:04.937Z,90.5052
2024-05-09T01:35:06.653Z,90.5544
2024-05-09T01:36:08.594Z,90.6564
2024-05-09T01:37:10.363Z,90.4319
2024-05-09T01:38:12.312Z,90.7477
2024-05-09T01:39:14.209Z,90.5256
2024-05-09T01:40:21.961Z,90.5209
2024-05-09T01:41:18.078Z,90.5969
2024-05-09T01:42:19.782Z,90.5544
2024-05-09T01:43:21.590Z,90.3116
2024-05-09T01:44:23.412Z,90.5780
2024-05-09T01:45:25.116Z,90.4646
2024-05-09T01:46:26.846Z,90.2977
2024-05-09T01:47:28.632Z,90.2534
2024-05-09T01:48:30.463Z,90.2339
2024-05-09T01:49:32.277Z,90.2921
2024-05-09T01:50:39.108Z,90.6606
2024-05-09T01:51:36.288Z,90.5715
2024-05-09T01:52:38.030Z,90.2031
2024-05-09T01:53:39.856Z,90.1242
2024-05-09T01:54:41.617Z,90.2870
2024-05-09T01:55:43.591Z,90.2663
2024-05-09T01:56:45.406Z,90.0793
2024-05-09T01:57:47.157Z,90.0902
2024-05-09T01:58:48.926Z,90.1190
2024-05-09T01:59:50.692Z,90.1247
2024-05-09T02:00:52.616Z,90.3792
2024-05-09T02:01:57.004Z,90.3913
2024-05-09T02:02:56.921Z,90.3303
2024-05-09T02:03:59.065Z,90.1996
2024-05-09T02:05:01.239Z,90.0592
2024-05-09T02:06:03.162Z,90.2568
2024-05-09T02:07:04.930Z,90.4465
2024-05-09T02:08:06.717Z,90.4431
2024-05-09T02:09:08.370Z,90.5584
2024-05-09T02:10:16.533Z,90.4208
2024-05-09T02:11:12.442Z,90.3923
2024-05-09T02:12:14.608Z,89.9914
2024-05-09T02:13:16.729Z,90.2855
2024-05-09T02:14:18.552Z,90.2979
2024-05-09T02:15:20.287Z,90.3969
2024-05-09T02:16:22.044Z,90.4008
2024-05-09T02:17:23.908Z,90.3333
2024-05-09T02:18:25.807Z,90.1694
2024-05-09T02:19:27.710Z,90.1608
2024-05-09T02:20:34.185Z,90.3012
2024-05-09T02:21:31.831Z,90.1144
2024-05-09T02:22:33.569Z,90.2151
2024-05-09T02:23:35.353Z,90.1244
2024-05-09T02:24:37.137Z,90.2250
2024-05-09T02:25:38.891Z,90.3567
2024-05-09T02:26:40.752Z,90.3603
2024-05-09T02:27:42.458Z,90.4546
2024-05-09T02:28:44.161Z,90.5842
2024-05-09T02:29:45.825Z,90.3470
2024-05-09T02:30:47.560Z,90.3870
2024-05-09T02:31:49.542Z,90.5631
2024-05-09T02:32:51.450Z,90.6221
2024-05-09T02:33:53.438Z,90.7866
2024-05-09T02:34:55.393Z,90.7561
2024-05-09T02:35:57.083Z,90.6218
2024-05-09T02:36:58.910Z,90.7775
2024-05-09T02:38:00.953Z,90.9894
2024-05-09T02:39:02.740Z,90.9158
2024-05-09T02:40:05.648Z,90.7358
2024-05-09T02:41:04.770Z,90.7947
2024-05-09T02:42:06.455Z,90.9452
2024-05-09T02:43:09.314Z,91.0206
2024-05-09T02:44:09.750Z,91.0267
2024-05-09T02:45:11.698Z,90.7955
2024-05-09T02:46:13.411Z,90.9694
2024-05-09T02:47:15.248Z,91.1614
2024-05-09T02:48:17.056Z,91.0552
2024-05-09T02:49:19.112Z,91.0739
2024-05-09T02:50:29.712Z,91.0855
2024-05-09T02:51:23.179Z,91.2512
2024-05-09T02:52:24.921Z,91.2025
2024-05-09T02:53:26.819Z,91.0715
2024-05-09T02:54:28.538Z,91.2286
2024-05-09T02:55:30.254Z,91.2319
2024-05-09T02:56:32.005Z,91.2913
2024-05-09T02:57:33.781Z,91.3698
2024-05-09T02:58:35.485Z,91.3004
2024-05-09T02:59:37.326Z,91.3159
2024-05-09T03:00:41.505Z,91.2955
2024-05-09T03:01:39.332Z,91.1982
2024-05-09T03:02:41.117Z,91.3078
2024-05-09T03:03:43.109Z,91.3960
2024-05-09T03:04:45.175Z,91.4308
2024-05-09T03:05:47.147Z,91.3341
2024-05-09T03:06:48.949Z,91.1299
2024-05-09T03:07:50.746Z,91.2064
2024-05-09T03:08:52.511Z,91.2569
2024-05-09T03:09:54.220Z,91.3334
2024-05-09T03:10:56.139Z,91.2227
2024-05-09T03:11:57.951Z,91.6084
2024-05-09T03:12:59.815Z,91.3053
2024-05-09T03:14:01.574Z,91.2801
2024-05-09T03:15:03.324Z,91.3073
2024-05-09T03:16:05.126Z,91.2510
2024-05-09T03:17:07.018Z,91.3389
2024-05-09T03:18:08.885Z,91.4186
2024-05-09T03:19:11.018Z,91.3368
2024-05-09T03:20:20.483Z,91.2740
2024-05-09T03:21:14.974Z,91.1999
2024-05-09T03:22:16.612Z,91.1199
2024-05-09T03:23:18.428Z,91.2233
2024-05-09T03:24:20.137Z,91.1192
2024-05-09T03:25:21.872Z,91.1744
2024-05-09T03:26:23.804Z,91.3574
2024-05-09T03:27:25.580Z,91.4948
2024-05-09T03:28:27.248Z,91.5188
2024-05-09T03:29:29.009Z,91.3530
2024-05-09T03:30:39.419Z,91.3605
2024-05-09T03:31:32.855Z,91.6259
2024-05-09T03:32:34.688Z,91.7114
2024-05-09T03:33:36.860Z,91.6299
2024-05-09T03:34:39.023Z,91.4649
2024-05-09T03:35:40.936Z,91.5523
2024-05-09T03:36:42.727Z,91.3906
2024-05-09T03:37:44.465Z,91.4719
2024-05-09T03:38:46.260Z,91.4446
2024-05-09T03:39:47.927Z,91.4325
2024-05-09T03:40:50.371Z,91.5540
2024-05-09T03:41:50.051Z,91.4951
2024-05-09T03:42:51.818Z,91.5738
2024-05-09T03:43:53.589Z,91.6962
2024-05-09T03:44:55.309Z,91.5306
2024-05-09T03:45:57.044Z,91.2539
2024-05-09T03:46:58.972Z,91.5050
2024-05-09T03:48:00.816Z,91.5785
2024-05-09T03:49:02.787Z,91.5199
2024-05-09T03:50:05.608Z,91.6676
2024-05-09T03:51:05.037Z,91.5502
2024-05-09T03:52:06.782Z,91.6038
2024-05-09T03:53:08.582Z,91.5403
2024-05-09T03:54:10.223Z,91.6111
2024-05-09T03:55:12.042Z,91.6684
2024-05-09T03:56:13.777Z,91.6682
2024-05-09T03:57:15.549Z,91.6232
2024-05-09T03:58:17.261Z,91.6532
2024-05-09T03:59:19.060Z,91.6795
2024-05-09T04:00:30.463Z,91.7336
2024-05-09T04:01:22.876Z,91.7409
2024-05-09T04:02:24.641Z,91.8921
2024-05-09T04:03:26.878Z,91.8782
2024-05-09T04:04:28.902Z,92.1161
2024-05-09T04:05:30.918Z,91.9276
2024-05-09T04:06:32.973Z,91.8532
2024-05-09T04:07:34.698Z,91.8456
2024-05-09T04:08:36.605Z,91.7800
2024-05-09T04:09:38.544Z,91.7289
2024-05-09T04:10:40.317Z,91.6666
2024-05-09T04:11:42.140Z,91.6194
2024-05-09T04:12:43.855Z,91.4896
2024-05-09T04:13:45.636Z,91.2155
2024-05-09T04:14:47.429Z,91.1378
2024-05-09T04:15:49.171Z,90.9905
2024-05-09T04:16:50.935Z,90.8516
2024-05-09T04:17:52.877Z,90.8384
2024-05-09T04:18:54.834Z,90.7197
2024-05-09T04:19:56.574Z,90.7388
2024-05-09T04:20:58.328Z,91.0889
2024-05-09T04:22:00.052Z,91.0468
2024-05-09T04:23:01.811Z,90.8105
2024-05-09T04:24:03.597Z,90.9512
2024-05-09T04:25:05.290Z,90.8703
2024-05-09T04:26:07.068Z,90.9699
2024-05-09T04:27:08.760Z,90.7555
2024-05-09T04:28:10.485Z,90.6204
2024-05-09T04:29:12.443Z,90.7385
2024-05-09T04:30:21.702Z,90.5905
2024-05-09T04:31:16.289Z,90.6801
2024-05-09T04:32:18.037Z,90.8379
2024-05-09T04:33:20.345Z,90.8678
2024-05-09T04:34:22.671Z,90.6682
2024-05-09T04:35:24.767Z,90.7039
2024-05-09T04:36:26.594Z,90.9201
2024-05-09T04:37:28.308Z,90.8457
2024-05-09T04:38:30.028Z,90.7151
2024-05-09T04:39:31.855Z,90.6024
2024-05-09T04:40:36.199Z,90.6258
2024-05-09T04:41:36.356Z,90.6926
2024-05-09T04:42:38.126Z,90.6534
2024-05-09T04:43:39.810Z,90.7652
2024-05-09T04:44:41.657Z,90.8120
2024-05-09T04:45:43.364Z,90.5231
2024-05-09T04:46:45.177Z,90.1546
2024-05-09T04:47:47.067Z,89.9772
2024-05-09T04:48:49.101Z,90.0697
2024-05-09T04:49:51.035Z,90.1384
2024-05-09T04:50:52.840Z,89.9417
2024-05-09T04:51:54.603Z,90.0834
2024-05-09T04:52:56.387Z,90.2954
2024-05-09T04:53:58.106Z,90.4176
2024-05-09T04:54:59.899Z,90.3653
2024-05-09T04:56:01.672Z,90.3664
2024-05-09T04:57:03.406Z,90.5189
2024-05-09T04:58:05.082Z,90.6244
2024-05-09T04:59:06.972Z,90.4075
2024-05-09T05:00:14.611Z,90.3027
2024-05-09T05:01:10.849Z,90.4108
2024-05-09T05:02:12.821Z,90.3048
2024-05-09T05:03:16.029Z,90.2147
2024-05-09T05:04:15.855Z,90.0236
2024-05-09T05:05:17.902Z,90.2447
2024-05-09T05:06:19.824Z,90.0915
2024-05-09T05:07:21.574Z,90.0522
2024-05-09T05:08:23.417Z,90.2254
2024-05-09T05:09:25.128Z,90.1015
2024-05-09T05:10:33.592Z,90.3616
2024-05-09T05:11:29.145Z,90.4390
2024-05-09T05:12:31.163Z,90.2973
2024-05-09T05:13:33.143Z,90.4215
2024-05-09T05:14:34.954Z,90.3606
2024-05-09T05:15:36.771Z,90.5106
2024-05-09T05:16:38.514Z,90.4079
2024-05-09T05:17:40.555Z,90.1265
2024-05-09T05:18:42.475Z,90.0771
2024-05-09T05:19:44.543Z,90.0733
2024-05-09T05:20:46.531Z,90.0183
2024-05-09T05:21:48.395Z,89.9766
2024-05-09T05:22:50.246Z,89.9768
2024-05-09T05:23:52.049Z,89.9850
2024-05-09T05:24:53.841Z,89.7878
2024-05-09T05:25:55.991Z,89.9562
2024-05-09T05:26:57.937Z,90.2684
2024-05-09T05:27:59.688Z,90.1823
2024-05-09T05:29:01.528Z,90.0696
2024-05-09T05:30:03.576Z,90.0615
2024-05-09T05:31:04.764Z,90.1627
2024-05-09T05:32:06.652Z,90.4114
2024-05-09T05:33:08.585Z,90.3773
2024-05-09T05:34:10.485Z,90.3389
2024-05-09T05:35:12.340Z,90.3299
2024-05-09T05:36:14.099Z,90.3939
2024-05-09T05:37:15.912Z,90.4323
2024-05-09T05:38:17.968Z,90.0830
2024-05-09T05:39:19.894Z,90.1646
2024-05-09T05:40:28.354Z,90.1382
2024-05-09T05:41:23.850Z,90.0018
2024-05-09T05:42:25.603Z,90.0852
2024-05-09T05:43:27.468Z,90.4038
2024-05-09T05:44:29.299Z,90.3994
2024-05-09T05:45:31.118Z,90.0213
2024-05-09T05:46:32.879Z,89.9442
2024-05-09T05:47:34.971Z,90.0143
2024-05-09T05:48:37.145Z,89.8704
2024-05-09T05:49:39.096Z,90.0070
2024-05-09T05:50:41.072Z,89.9793
2024-05-09T05:51:42.840Z,89.8032
2024-05-09T05:52:44.645Z,89.8320
2024-05-09T05:53:46.575Z,89.5582
2024-05-09T05:54:48.363Z,89.6048
2024-05-09T05:55:50.206Z,89.7545
2024-05-09T05:56:52.056Z,89.5460
2024-05-09T05:57:53.853Z,89.8652
2024-05-09T05:58:55.660Z,89.7402
2024-05-09T05:59:57.429Z,89.7002
2024-05-09T06:00:59.230Z,89.6683
2024-05-09T06:02:01.193Z,89.8677
2024-05-09T06:03:03.143Z,89.7899
2024-05-09T06:04:05.076Z,89.7529
2024-05-09T06:05:06.872Z,89.7282
2024-05-09T06:06:08.631Z,89.5355
2024-05-09T06:07:10.417Z,89.5361
2024-05-09T06:08:12.392Z,89.2817
2024-05-09T06:09:14.326Z,88.9822
2024-05-09T06:10:21.466Z,88.4775
2024-05-09T06:11:18.321Z,88.2082
2024-05-09T06:12:20.165Z,88.4790
2024-05-09T06:13:21.995Z,88.5942
2024-05-09T06:14:23.852Z,88.4133
2024-05-09T06:15:25.861Z,88.2998
2024-05-09T06:16:27.614Z,88.0652
2024-05-09T06:17:29.493Z,88.1745
2024-05-09T06:18:31.502Z,88.0820
2024-05-09T06:19:33.702Z,87.7883
2024-05-09T06:20:37.903Z,87.6489
2024-05-09T06:21:37.823Z,87.6382
2024-05-09T06:22:39.603Z,87.2733
2024-05-09T06:23:41.363Z,87.0445
2024-05-09T06:24:43.178Z,86.6455
2024-05-09T06:25:45.099Z,86.4008
2024-05-09T06:26:46.868Z,85.7372
2024-05-09T06:27:48.669Z,85.7396
2024-05-09T06:28:50.523Z,85.4124
2024-05-09T06:29:52.286Z,85.5088
2024-05-09T06:30:54.058Z,85.0566
2024-05-09T06:31:59.523Z,84.9411
2024-05-09T06:32:56.367Z,84.5530
2024-05-09T06:33:58.382Z,83.1685
2024-05-09T06:35:00.296Z,82.5911
2024-05-09T06:36:02.050Z,83.7407
2024-05-09T06:37:03.816Z,83.0150
2024-05-09T06:38:05.696Z,82.5456
2024-05-09T06:39:07.517Z,82.5827
2024-05-09T06:40:10.081Z,82.8231
2024-05-09T06:41:09.317Z,81.9852
2024-05-09T06:42:11.077Z,82.7372
2024-05-09T06:43:12.970Z,83.0082
2024-05-09T06:44:14.793Z,82.9177
2024-05-09T06:45:16.587Z,82.9732
2024-05-09T06:46:18.386Z,83.1333
2024-05-09T06:47:20.358Z,82.8505
2024-05-09T06:48:22.944Z,83.2716
2024-05-09T06:49:22.475Z,82.7295
2024-05-09T06:50:28.146Z,81.0181
2024-05-09T06:51:26.480Z,79.1816
2024-05-09T06:52:28.307Z,79.5761
2024-05-09T06:53:30.105Z,81.0772
2024-05-09T06:54:31.890Z,81.2745
2024-05-09T06:55:33.742Z,81.8341
2024-05-09T06:56:35.575Z,82.6088
2024-05-09T06:57:39.179Z,82.4326
2024-05-09T06:58:37.698Z,82.9304
2024-05-09T06:59:39.484Z,82.9756
2024-05-09T07:00:42.216Z,83.6986
2024-05-09T07:01:41.524Z,83.3609
2024-05-09T07:02:43.365Z,84.2276
2024-05-09T07:03:45.238Z,83.5968
2024-05-09T07:04:47.199Z,83.5891
2024-05-09T07:05:49.865Z,83.8911
2024-05-09T07:06:49.127Z,83.9627
2024-05-09T07:07:50.935Z,83.7163
2024-05-09T07:08:52.863Z,84.0063
2024-05-09T07:09:54.666Z,84.0554
2024-05-09T07:10:56.506Z,84.1758
2024-05-09T07:11:58.370Z,83.8501
2024-05-09T07:13:00.180Z,84.0887
2024-05-09T07:14:02.001Z,83.7206
2024-05-09T07:15:03.814Z,83.2390
2024-05-09T07:16:05.591Z,83.5624
2024-05-09T07:17:07.521Z,83.6535
2024-05-09T07:18:09.524Z,83.6159
2024-05-09T07:19:11.612Z,83.4519
2024-05-09T07:20:23.027Z,83.6857
2024-05-09T07:21:15.776Z,83.3036
2024-05-09T07:22:17.653Z,83.1509
2024-05-09T07:23:19.655Z,83.0782
2024-05-09T07:24:21.725Z,82.6126
2024-05-09T07:25:23.521Z,82.7840
2024-05-09T07:26:25.385Z,82.2884
2024-05-09T07:27:27.207Z,81.9523
2024-05-09T07:28:28.968Z,81.3103
2024-05-09T07:29:30.847Z,81.7379
2024-05-09T07:30:34.399Z,81.2090
2024-05-09T07:31:34.233Z,81.2414
2024-05-09T07:32:36.141Z,80.7725
2024-05-09T07:33:37.957Z,80.6219
2024-05-09T07:34:39.841Z,81.4287
2024-05-09T07:35:41.669Z,81.3025
2024-05-09T07:36:43.393Z,81.2950
2024-05-09T07:37:45.218Z,81.0871
2024-05-09T07:38:46.997Z,81.8827
2024-05-09T07:39:48.795Z,81.8658
2024-05-09T07:40:50.637Z,82.3393
2024-05-09T07:41:52.522Z,82.3912
2024-05-09T07:42:54.290Z,82.6323
2024-05-09T07:43:56.089Z,82.1149
2024-05-09T07:45:14.551Z,82.1846
2024-05-09T07:46:28.567Z,81.3204
2024-05-09T07:53:29.268Z,80.6155
2024-05-09T07:53:37.744Z,81.4223
2024-05-09T07:54:17.031Z,80.9889
2024-05-09T07:55:19.220Z,81.1629
2024-05-09T07:56:22.831Z,80.8542
2024-05-09T07:57:23.109Z,80.9212
2024-05-09T07:58:24.898Z,79.5840
2024-05-09T07:59:26.656Z,80.0950
2024-05-09T08:00:31.516Z,79.7751
2024-05-09T08:01:28.882Z,79.5708
2024-05-09T08:02:30.841Z,78.4154
2024-05-09T08:03:32.976Z,78.6362
2024-05-09T08:04:35.015Z,78.7823
2024-05-09T08:05:37.095Z,77.8721
2024-05-09T08:06:39.097Z,77.8464
2024-05-09T08:07:40.952Z,77.0355
2024-05-09T08:08:42.799Z,75.9864
2024-05-09T08:09:44.665Z,76.6995
2024-05-09T08:10:46.602Z,77.4189
2024-05-09T08:11:48.490Z,76.7371
2024-05-09T08:12:50.487Z,77.1278
2024-05-09T08:13:52.246Z,76.7803
2024-05-09T08:14:54.086Z,76.9155
2024-05-09T08:15:55.945Z,78.0201
2024-05-09T08:16:57.763Z,78.0649
2024-05-09T08:17:59.783Z,78.2880
2024-05-09T08:19:01.731Z,78.0441
2024-05-09T08:20:05.432Z,77.8474
2024-05-09T08:21:04.678Z,78.1717
2024-05-09T08:22:06.794Z,78.0566
2024-05-09T08:23:08.754Z,78.3372
2024-05-09T08:24:10.723Z,78.0513
2024-05-09T08:25:14.161Z,77.9513
2024-05-09T08:26:13.586Z,78.6761
2024-05-09T08:27:15.411Z,78.8153
2024-05-09T08:28:17.388Z,78.8375
2024-05-09T08:29:19.264Z,79.1119
2024-05-09T08:30:25.482Z,78.8425
2024-05-09T08:31:23.554Z,79.0937
2024-05-09T08:32:25.402Z,79.3052
2024-05-09T08:33:27.396Z,79.1979
2024-05-09T08:34:29.480Z,79.4449
2024-05-09T08:35:31.484Z,79.1724
2024-05-09T08:36:33.554Z,79.2474
2024-05-09T08:37:38.783Z,79.3480
2024-05-09T08:38:37.443Z,78.9594
2024-05-09T08:39:39.267Z,79.1395
2024-05-09T08:40:41.259Z,78.4725
2024-05-09T08:41:43.181Z,78.7035
2024-05-09T08:42:45.040Z,78.3581
2024-05-09T08:43:46.910Z,77.4301
2024-05-09T08:44:48.829Z,77.5970
2024-05-09T08:45:50.737Z,76.7137
2024-05-09T08:46:52.533Z,76.8974
2024-05-09T08:47:54.438Z,76.3226
2024-05-09T08:48:56.351Z,75.6845
2024-05-09T08:49:58.280Z,75.8095
2024-05-09T08:51:00.161Z,76.2350
2024-05-09T08:52:02.059Z,76.4353
2024-05-09T08:53:03.888Z,76.4190
2024-05-09T08:54:05.696Z,76.1628
2024-05-09T08:55:07.617Z,76.6219
2024-05-09T08:56:09.440Z,77.2365
2024-05-09T08:57:11.229Z,76.9470
2024-05-09T08:58:13.094Z,76.1474
2024-05-09T08:59:15.114Z,76.5155
2024-05-09T09:00:25.603Z,76.7940
2024-05-09T09:01:19.327Z,76.5757
2024-05-09T09:02:21.492Z,75.9178
2024-05-09T09:03:23.528Z,74.9409
2024-05-09T09:04:25.557Z,75.4960
2024-05-09T09:05:27.792Z,74.8918
2024-05-09T09:06:29.682Z,75.3312
2024-05-09T09:07:31.635Z,76.1078
2024-05-09T09:08:33.548Z,76.5993
2024-05-09T09:09:35.360Z,76.9126
2024-05-09T09:10:37.251Z,77.2576
2024-05-09T09:11:38.998Z,77.7080
2024-05-09T09:12:40.788Z,78.1384
2024-05-09T09:13:42.635Z,77.6639
2024-05-09T09:14:44.476Z,77.5313
2024-05-09T09:15:46.387Z,76.9116
2024-05-09T09:16:48.165Z,76.6182
2024-05-09T09:17:50.067Z,75.9828
2024-05-09T09:18:52.477Z,75.8337
2024-05-09T09:19:54.822Z,75.7936
2024-05-09T09:20:56.802Z,75.9642
2024-05-09T09:21:58.558Z,76.3895
2024-05-09T09:23:00.613Z,76.3567
2024-05-09T09:24:02.456Z,76.1145
2024-05-09T09:25:04.394Z,76.2835
2024-05-09T09:26:06.288Z,76.0420
2024-05-09T09:27:08.051Z,76.0032
2024-05-09T09:28:10.129Z,75.0138
2024-05-09T09:29:12.004Z,74.7270
2024-05-09T09:30:27.680Z,73.6329
2024-05-09T09:31:16.122Z,73.5367
2024-05-09T09:32:18.110Z,73.8938
2024-05-09T09:33:19.994Z,72.8842
2024-05-09T09:34:22.040Z,72.8224
2024-05-09T09:35:23.852Z,73.1886
2024-05-09T09:36:25.809Z,72.9908
2024-05-09T09:37:27.608Z,72.6712
2024-05-09T09:38:29.651Z,72.6162
2024-05-09T09:39:31.520Z,73.0915
2024-05-09T09:40:35.902Z,73.7951
2024-05-09T09:41:35.590Z,73.0674
2024-05-09T09:42:37.439Z,72.6313
2024-05-09T09:43:39.404Z,73.1339
2024-05-09T09:44:42.373Z,72.7710
2024-05-09T09:45:41.326Z,73.5308
2024-05-09T09:46:43.147Z,73.3169
2024-05-09T09:47:45.211Z,73.0551
2024-05-09T09:48:47.332Z,72.5462
2024-05-09T09:49:49.235Z,72.1005
2024-05-09T09:50:51.190Z,72.1191
2024-05-09T09:51:53.137Z,71.6266
2024-05-09T09:52:54.972Z,71.3391
2024-05-09T09:53:56.766Z,72.4597
2024-05-09T09:54:56.918Z,71.1564
2024-05-09T09:55:58.652Z,68.2327
2024-05-09T09:57:00.452Z,68.0900
2024-05-09T09:58:02.461Z,68.7581
2024-05-09T09:59:04.281Z,69.2765
2024-05-09T10:00:09.571Z,69.4571
2024-05-09T10:01:08.829Z,69.2891
2024-05-09T10:02:10.994Z,68.3081
2024-05-09T10:03:13.314Z,67.3422
2024-05-09T10:04:15.309Z,67.5350
2024-05-09T10:05:17.222Z,65.9048
2024-05-09T10:06:19.118Z,66.4319
2024-05-09T10:07:21.187Z,66.4845
2024-05-09T10:08:23.119Z,64.6906
2024-05-09T10:09:25.036Z,64.8214
2024-05-09T10:10:31.728Z,65.0666
2024-05-09T10:11:29.534Z,65.6631
2024-05-09T10:12:31.554Z,65.8398
2024-05-09T10:13:33.450Z,66.3274
2024-05-09T10:14:35.396Z,65.8773
2024-05-09T10:15:37.429Z,67.3926
2024-05-09T10:16:39.234Z,65.7214
2024-05-09T10:17:41.296Z,64.9673
2024-05-09T10:18:43.570Z,67.8253
2024-05-09T10:19:45.798Z,66.9333
2024-05-09T10:20:47.675Z,67.0684
2024-05-09T10:21:49.737Z,67.5783
2024-05-09T10:22:51.740Z,67.2713
2024-05-09T10:23:53.806Z,65.7266
2024-05-09T10:24:55.740Z,65.0153
2024-05-09T10:25:57.584Z,65.4700
2024-05-09T10:26:59.438Z,65.1003
2024-05-09T10:28:01.480Z,64.2431
2024-05-09T10:29:03.584Z,62.6476
2024-05-09T10:30:11.504Z,64.1385
2024-05-09T10:31:07.964Z,64.3267
2024-05-09T10:32:09.958Z,63.8722
2024-05-09T10:33:12.180Z,64.6822
2024-05-09T10:34:14.289Z,64.6967
2024-05-09T10:35:16.284Z,64.2503
2024-05-09T10:36:18.173Z,65.3986
2024-05-09T10:37:20.280Z,66.1787
2024-05-09T10:38:22.124Z,66.7142
2024-05-09T10:39:24.053Z,66.4981
2024-05-09T10:40:31.096Z,66.8382
2024-05-09T10:41:28.396Z,66.3671
2024-05-09T10:42:30.308Z,67.0049
2024-05-09T10:43:32.420Z,67.4875
2024-05-09T10:44:34.424Z,67.6168
2024-05-09T10:45:36.467Z,67.4646
2024-05-09T10:46:38.298Z,68.1674
2024-05-09T10:47:40.324Z,68.7373
2024-05-09T10:48:42.562Z,68.6682
2024-05-09T10:49:44.564Z,68.6608
2024-05-09T10:50:46.399Z,68.1252
2024-05-09T10:51:48.380Z,67.7475
2024-05-09T10:52:50.463Z,67.6154
2024-05-09T10:53:52.298Z,67.1531
2024-05-09T10:54:54.482Z,66.7638
2024-05-09T10:55:56.402Z,65.8326
2024-05-09T10:56:58.199Z,65.5756
2024-05-09T10:58:00.333Z,65.4069
2024-05-09T10:59:02.296Z,63.8353
2024-05-09T11:00:06.307Z,62.1517
2024-05-09T11:01:06.662Z,62.7046
2024-05-09T11:02:06.752Z,63.4416
2024-05-09T11:03:08.797Z,63.2934
2024-05-09T11:04:10.775Z,62.2063
2024-05-09T11:05:12.941Z,62.9501
2024-05-09T11:06:14.905Z,60.7686
2024-05-09T11:07:17.076Z,61.5337
2024-05-09T11:08:18.923Z,61.9427
2024-05-09T11:09:20.867Z,62.1582
2024-05-09T11:10:55.334Z,62.2099
2024-05-09T11:11:57.365Z,60.9280
2024-05-09T11:12:59.445Z,62.4491
2024-05-09T11:14:01.295Z,60.7051
2024-05-09T11:15:03.240Z,61.3995
2024-05-09T11:16:05.361Z,62.2705
2024-05-09T11:17:07.430Z,62.8790
2024-05-09T11:18:09.319Z,63.1040
2024-05-09T11:19:11.276Z,62.2862
2024-05-09T11:20:19.660Z,61.9000
2024-05-09T11:21:15.712Z,62.2232
2024-05-09T11:22:17.769Z,60.4481
2024-05-09T11:23:19.717Z,59.8134
2024-05-09T11:24:21.525Z,59.1147
2024-05-09T11:25:23.489Z,59.9576
2024-05-09T11:26:25.605Z,59.3287
2024-05-09T11:27:27.465Z,59.9716
2024-05-09T11:28:29.273Z,59.3809
2024-05-09T11:29:31.103Z,59.4806
2024-05-09T11:30:32.917Z,61.2913
2024-05-09T11:31:35.019Z,61.5934
2024-05-09T11:32:37.066Z,62.6144
2024-05-09T11:33:39.403Z,62.1836
2024-05-09T11:34:41.547Z,61.5038
2024-05-09T11:35:43.543Z,61.2220
2024-05-09T11:36:45.589Z,61.3325
2024-05-09T11:37:47.414Z,61.9570
2024-05-09T11:38:49.519Z,61.4081
2024-05-09T11:39:51.553Z,62.1291
2024-05-09T11:40:53.428Z,62.5442
2024-05-09T11:41:55.409Z,62.3445
2024-05-09T11:42:57.347Z,61.4793
2024-05-09T11:43:59.197Z,61.0142
2024-05-09T11:45:01.313Z,60.1608
2024-05-09T11:46:03.783Z,60.4056
2024-05-09T11:47:03.573Z,60.9107
2024-05-09T11:48:05.707Z,60.5819
2024-05-09T11:49:07.885Z,60.6448
2024-05-09T11:50:15.999Z,61.0898
2024-05-09T11:51:11.904Z,61.8840
2024-05-09T11:52:13.991Z,61.4272
2024-05-09T11:53:16.054Z,63.1520
2024-05-09T11:54:17.860Z,63.2347
2024-05-09T11:55:19.903Z,64.1726
2024-05-09T11:56:22.010Z,64.4649
2024-05-09T11:57:23.957Z,64.3487
2024-05-09T11:58:25.796Z,64.8629
2024-05-09T11:59:27.618Z,64.5697
2024-05-09T12:00:36.513Z,63.4046
2024-05-09T12:01:32.385Z,63.5795
2024-05-09T12:02:34.414Z,63.6714
2024-05-09T12:03:36.628Z,62.7109
2024-05-09T12:04:38.785Z,62.9873
2024-05-09T12:05:41.065Z,62.8462
2024-05-09T12:06:43.222Z,62.6816
2024-05-09T12:07:45.160Z,62.9103
2024-05-09T12:08:46.956Z,62.1546
2024-05-09T12:09:48.929Z,60.9104
2024-05-09T12:10:50.885Z,58.3683
2024-05-09T12:11:53.131Z,59.1300
2024-05-09T12:12:55.278Z,58.6019
2024-05-09T12:13:57.329Z,59.0889
2024-05-09T12:14:59.291Z,61.1699
2024-05-09T12:16:01.260Z,61.1560
2024-05-09T12:17:03.427Z,60.5253
2024-05-09T12:18:05.505Z,60.6661
2024-05-09T12:19:07.588Z,61.0229
2024-05-09T12:20:17.425Z,61.3222
2024-05-09T12:21:11.776Z,61.7612
2024-05-09T12:22:13.719Z,60.8168
2024-05-09T12:23:15.644Z,61.8078
2024-05-09T12:24:18.531Z,60.2142
2024-05-09T12:25:18.113Z,58.8182
2024-05-09T12:26:20.028Z,59.8460
2024-05-09T12:27:22.167Z,59.9884
2024-05-09T12:28:24.168Z,59.5089
2024-05-09T12:29:26.199Z,58.8405
2024-05-09T12:30:35.771Z,58.1579
2024-05-09T12:31:30.577Z,59.4991
2024-05-09T12:32:32.657Z,59.7115
2024-05-09T12:33:34.729Z,59.9315